sensor_id;sensor_type;location;lat;lon;timestamp;pressure;altitude;pressure_sealevel;temperature;humidity
9905;BME280;4991;43.566;27.820;2023-02-26T00:02:09;97683.88;;;12.91;100.00
9905;BME280;4991;43.566;27.820;2023-02-26T00:04:36;97697.75;;;12.98;100.00
9905;BME280;4991;43.566;27.820;2023-02-26T00:07:02;97696.03;;;12.93;100.00
9905;BME280;4991;43.566;27.820;2023-02-26T00:09:29;97702.41;;;12.97;100.00
9905;BME280;4991;43.566;27.820;2023-02-26T00:11:56;97695.38;;;12.96;100.00
9905;BME280;4991;43.566;27.820;2023-02-26T00:14:22;97678.88;;;12.81;100.00
9905;BME280;4991;43.566;27.820;2023-02-26T00:17:05;97697.41;;;12.99;100.00
9905;BME280;4991;43.566;27.820;2023-02-26T00:19:33;97703.63;;;13.00;100.00
9905;BME280;4991;43.566;27.820;2023-02-26T00:21:59;97701.25;;;12.98;100.00
9905;BME280;4991;43.566;27.820;2023-02-26T00:24:24;97704.34;;;12.97;100.00
9905;BME280;4991;43.566;27.820;2023-02-26T00:26:50;97710.97;;;12.96;100.00
9905;BME280;4991;43.566;27.820;2023-02-26T00:29:16;97707.75;;;12.94;100.00
9905;BME280;4991;43.566;27.820;2023-02-26T00:31:42;97688.06;;;12.88;100.00
9905;BME280;4991;43.566;27.820;2023-02-26T00:34:11;97688.63;;;12.94;100.00
9905;BME280;4991;43.566;27.820;2023-02-26T00:36:45;97699.69;;;12.97;100.00
9905;BME280;4991;43.566;27.820;2023-02-26T00:42:02;97679.75;;;12.97;100.00
9905;BME280;4991;43.566;27.820;2023-02-26T00:44:28;97686.72;;;12.94;100.00
9905;BME280;4991;43.566;27.820;2023-02-26T00:47:10;97688.41;;;12.99;100.00
9905;BME280;4991;43.566;27.820;2023-02-26T00:52:19;97676.66;;;12.98;100.00
9905;BME280;4991;43.566;27.820;2023-02-26T00:54:47;97668.03;;;12.96;100.00
9905;BME280;4991;43.566;27.820;2023-02-26T00:57:13;97660.97;;;12.95;100.00
9905;BME280;4991;43.566;27.820;2023-02-26T00:59:38;97659.72;;;12.93;100.00
9905;BME280;4991;43.566;27.820;2023-02-26T01:02:04;97662.66;;;13.00;100.00
9905;BME280;4991;43.566;27.820;2023-02-26T01:04:30;97666.53;;;12.99;100.00
9905;BME280;4991;43.566;27.820;2023-02-26T01:06:57;97677.34;;;12.95;100.00
9905;BME280;4991;43.566;27.820;2023-02-26T01:09:26;97672.25;;;12.94;100.00
9905;BME280;4991;43.566;27.820;2023-02-26T01:11:54;97669.66;;;12.85;100.00
9905;BME280;4991;43.566;27.820;2023-02-26T01:14:21;97668.06;;;12.84;100.00
9905;BME280;4991;43.566;27.820;2023-02-26T01:16:56;97668.88;;;12.85;100.00
9905;BME280;4991;43.566;27.820;2023-02-26T01:21:55;97653.94;;;12.82;100.00
9905;BME280;4991;43.566;27.820;2023-02-26T01:24:27;97664.75;;;12.79;100.00
9905;BME280;4991;43.566;27.820;2023-02-26T01:26:54;97668.66;;;12.78;100.00
9905;BME280;4991;43.566;27.820;2023-02-26T01:29:20;97644.09;;;12.66;100.00
9905;BME280;4991;43.566;27.820;2023-02-26T01:32:41;97658.84;;;12.77;100.00
9905;BME280;4991;43.566;27.820;2023-02-26T01:35:16;97671.72;;;12.76;100.00
9905;BME280;4991;43.566;27.820;2023-02-26T01:38:12;97665.13;;;12.77;100.00
9905;BME280;4991;43.566;27.820;2023-02-26T01:43:55;97670.13;;;12.75;100.00
9905;BME280;4991;43.566;27.820;2023-02-26T01:48:57;97664.31;;;12.77;100.00
9905;BME280;4991;43.566;27.820;2023-02-26T01:54:09;97682.41;;;12.81;100.00
9905;BME280;4991;43.566;27.820;2023-02-26T01:56:34;97681.25;;;12.82;100.00
9905;BME280;4991;43.566;27.820;2023-02-26T01:59:02;97686.97;;;12.77;100.00
9905;BME280;4991;43.566;27.820;2023-02-26T02:01:34;97682.06;;;12.83;100.00
9905;BME280;4991;43.566;27.820;2023-02-26T02:04:01;97682.97;;;12.87;100.00
9905;BME280;4991;43.566;27.820;2023-02-26T02:06:28;97695.16;;;12.89;100.00
9905;BME280;4991;43.566;27.820;2023-02-26T02:08:55;97708.47;;;12.91;100.00
9905;BME280;4991;43.566;27.820;2023-02-26T02:11:21;97709.69;;;12.93;100.00
9905;BME280;4991;43.566;27.820;2023-02-26T02:28:11;97723.00;;;12.95;100.00
9905;BME280;4991;43.566;27.820;2023-02-26T02:31:17;97712.19;;;12.98;100.00
9905;BME280;4991;43.566;27.820;2023-02-26T02:33:52;97722.69;;;12.96;100.00
9905;BME280;4991;43.566;27.820;2023-02-26T02:36:31;97726.31;;;13.00;100.00
9905;BME280;4991;43.566;27.820;2023-02-26T02:39:09;97717.53;;;12.95;100.00
9905;BME280;4991;43.566;27.820;2023-02-26T02:41:46;97732.25;;;13.03;100.00
9905;BME280;4991;43.566;27.820;2023-02-26T02:44:16;97718.59;;;12.90;100.00
9905;BME280;4991;43.566;27.820;2023-02-26T02:46:45;97753.19;;;12.98;100.00
9905;BME280;4991;43.566;27.820;2023-02-26T02:49:21;97739.97;;;13.00;100.00
9905;BME280;4991;43.566;27.820;2023-02-26T02:51:52;97741.34;;;13.07;100.00
9905;BME280;4991;43.566;27.820;2023-02-26T02:56:53;97730.75;;;13.05;100.00
9905;BME280;4991;43.566;27.820;2023-02-26T03:02:22;97744.53;;;13.09;100.00
9905;BME280;4991;43.566;27.820;2023-02-26T03:04:49;97743.66;;;13.05;100.00
9905;BME280;4991;43.566;27.820;2023-02-26T03:07:16;97743.19;;;13.03;100.00
9905;BME280;4991;43.566;27.820;2023-02-26T03:09:41;97744.34;;;13.02;100.00
9905;BME280;4991;43.566;27.820;2023-02-26T03:12:07;97727.25;;;13.05;100.00
9905;BME280;4991;43.566;27.820;2023-02-26T03:14:33;97744.34;;;13.02;100.00
9905;BME280;4991;43.566;27.820;2023-02-26T03:17:16;97747.84;;;13.02;100.00
9905;BME280;4991;43.566;27.820;2023-02-26T03:22:50;97753.44;;;13.06;100.00
9905;BME280;4991;43.566;27.820;2023-02-26T03:30:58;97764.72;;;13.04;100.00
9905;BME280;4991;43.566;27.820;2023-02-26T03:36:05;97764.56;;;13.00;100.00
9905;BME280;4991;43.566;27.820;2023-02-26T03:38:47;97767.41;;;12.92;100.00
9905;BME280;4991;43.566;27.820;2023-02-26T03:41:21;97756.94;;;12.94;100.00
9905;BME280;4991;43.566;27.820;2023-02-26T03:43:55;97760.84;;;12.93;100.00
9905;BME280;4991;43.566;27.820;2023-02-26T03:46:26;97764.81;;;12.95;100.00
9905;BME280;4991;43.566;27.820;2023-02-26T03:48:56;97763.56;;;12.93;100.00
9905;BME280;4991;43.566;27.820;2023-02-26T03:51:26;97770.38;;;12.99;100.00
9905;BME280;4991;43.566;27.820;2023-02-26T03:54:05;97766.72;;;12.95;100.00
9905;BME280;4991;43.566;27.820;2023-02-26T03:56:41;97777.00;;;12.98;100.00
9905;BME280;4991;43.566;27.820;2023-02-26T03:59:08;97776.88;;;12.94;100.00
9905;BME280;4991;43.566;27.820;2023-02-26T04:02:01;97787.13;;;12.97;100.00
9905;BME280;4991;43.566;27.820;2023-02-26T04:07:36;97802.38;;;12.98;100.00
9905;BME280;4991;43.566;27.820;2023-02-26T04:10:03;97801.38;;;12.91;100.00
9905;BME280;4991;43.566;27.820;2023-02-26T04:12:30;97794.16;;;12.98;100.00
9905;BME280;4991;43.566;27.820;2023-02-26T04:14:56;97805.91;;;12.99;100.00
9905;BME280;4991;43.566;27.820;2023-02-26T04:17:22;97820.06;;;13.01;100.00
9905;BME280;4991;43.566;27.820;2023-02-26T04:19:48;97806.06;;;13.03;100.00
9905;BME280;4991;43.566;27.820;2023-02-26T04:22:14;97789.06;;;12.97;100.00
9905;BME280;4991;43.566;27.820;2023-02-26T04:24:40;97808.28;;;13.00;100.00
9905;BME280;4991;43.566;27.820;2023-02-26T04:27:05;97811.88;;;13.01;100.00
9905;BME280;4991;43.566;27.820;2023-02-26T04:29:31;97817.44;;;13.05;100.00
9905;BME280;4991;43.566;27.820;2023-02-26T04:31:57;97806.84;;;13.03;100.00
9905;BME280;4991;43.566;27.820;2023-02-26T04:34:23;97810.47;;;13.07;100.00
9905;BME280;4991;43.566;27.820;2023-02-26T04:36:49;97801.03;;;13.05;100.00
9905;BME280;4991;43.566;27.820;2023-02-26T04:39:14;97814.72;;;13.05;100.00
9905;BME280;4991;43.566;27.820;2023-02-26T04:41:40;97828.50;;;13.08;100.00
9905;BME280;4991;43.566;27.820;2023-02-26T04:44:05;97843.16;;;13.04;100.00
9905;BME280;4991;43.566;27.820;2023-02-26T04:46:31;97831.09;;;13.05;100.00
9905;BME280;4991;43.566;27.820;2023-02-26T04:48:57;97838.16;;;13.06;100.00
9905;BME280;4991;43.566;27.820;2023-02-26T04:51:24;97833.84;;;13.05;100.00
9905;BME280;4991;43.566;27.820;2023-02-26T04:53:50;97857.06;;;13.11;100.00
9905;BME280;4991;43.566;27.820;2023-02-26T04:56:15;97841.81;;;13.10;100.00
9905;BME280;4991;43.566;27.820;2023-02-26T04:58:41;97858.97;;;13.10;100.00
9905;BME280;4991;43.566;27.820;2023-02-26T05:01:07;97856.47;;;13.17;100.00
9905;BME280;4991;43.566;27.820;2023-02-26T05:03:32;97864.56;;;13.14;100.00
9905;BME280;4991;43.566;27.820;2023-02-26T05:05:58;97861.38;;;13.24;100.00
9905;BME280;4991;43.566;27.820;2023-02-26T05:08:23;97864.56;;;13.26;100.00
9905;BME280;4991;43.566;27.820;2023-02-26T05:10:50;97872.88;;;13.29;100.00
9905;BME280;4991;43.566;27.820;2023-02-26T05:13:17;97869.47;;;13.32;100.00
9905;BME280;4991;43.566;27.820;2023-02-26T05:15:43;97875.03;;;13.36;100.00
9905;BME280;4991;43.566;27.820;2023-02-26T05:18:09;97887.13;;;13.35;100.00
9905;BME280;4991;43.566;27.820;2023-02-26T05:20:34;97885.16;;;13.47;100.00
9905;BME280;4991;43.566;27.820;2023-02-26T05:23:00;97895.41;;;13.38;100.00
9905;BME280;4991;43.566;27.820;2023-02-26T05:25:26;97908.19;;;13.46;100.00
9905;BME280;4991;43.566;27.820;2023-02-26T05:27:51;97901.91;;;13.46;100.00
9905;BME280;4991;43.566;27.820;2023-02-26T05:30:17;97900.31;;;13.45;100.00
9905;BME280;4991;43.566;27.820;2023-02-26T05:32:43;97911.72;;;13.47;100.00
9905;BME280;4991;43.566;27.820;2023-02-26T05:35:10;97920.03;;;13.38;100.00
9905;BME280;4991;43.566;27.820;2023-02-26T05:37:37;97914.78;;;13.45;100.00
9905;BME280;4991;43.566;27.820;2023-02-26T05:40:04;97912.50;;;13.47;100.00
9905;BME280;4991;43.566;27.820;2023-02-26T05:42:31;97914.31;;;13.55;100.00
9905;BME280;4991;43.566;27.820;2023-02-26T05:44:56;97924.03;;;13.53;100.00
9905;BME280;4991;43.566;27.820;2023-02-26T05:47:22;97919.44;;;13.57;100.00
9905;BME280;4991;43.566;27.820;2023-02-26T05:49:48;97924.56;;;13.58;100.00
9905;BME280;4991;43.566;27.820;2023-02-26T05:52:14;97919.00;;;13.55;100.00
9905;BME280;4991;43.566;27.820;2023-02-26T05:54:40;97911.25;;;13.57;100.00
9905;BME280;4991;43.566;27.820;2023-02-26T05:57:06;97921.41;;;13.56;100.00
9905;BME280;4991;43.566;27.820;2023-02-26T05:59:31;97914.31;;;13.55;100.00
9905;BME280;4991;43.566;27.820;2023-02-26T06:01:57;97931.31;;;13.49;100.00
9905;BME280;4991;43.566;27.820;2023-02-26T06:04:23;97920.13;;;13.54;100.00
9905;BME280;4991;43.566;27.820;2023-02-26T06:06:48;97950.22;;;13.54;100.00
9905;BME280;4991;43.566;27.820;2023-02-26T06:09:14;97949.88;;;13.55;100.00
9905;BME280;4991;43.566;27.820;2023-02-26T06:11:40;97929.84;;;13.51;100.00
9905;BME280;4991;43.566;27.820;2023-02-26T06:14:06;97950.22;;;13.54;100.00
9905;BME280;4991;43.566;27.820;2023-02-26T06:16:32;97947.16;;;13.55;100.00
9905;BME280;4991;43.566;27.820;2023-02-26T06:19:01;97960.00;;;13.55;100.00
9905;BME280;4991;43.566;27.820;2023-02-26T06:21:27;97950.47;;;13.49;100.00
9905;BME280;4991;43.566;27.820;2023-02-26T06:23:52;97987.50;;;13.46;100.00
9905;BME280;4991;43.566;27.820;2023-02-26T06:26:18;97982.38;;;13.57;100.00
9905;BME280;4991;43.566;27.820;2023-02-26T06:28:44;97980.19;;;13.50;100.00
9905;BME280;4991;43.566;27.820;2023-02-26T06:31:09;97993.31;;;13.57;100.00
9905;BME280;4991;43.566;27.820;2023-02-26T06:33:36;97988.28;;;13.47;100.00
9905;BME280;4991;43.566;27.820;2023-02-26T06:36:02;97996.38;;;13.55;100.00
9905;BME280;4991;43.566;27.820;2023-02-26T06:38:27;97994.00;;;13.54;100.00
9905;BME280;4991;43.566;27.820;2023-02-26T06:40:53;97984.44;;;13.48;100.00
9905;BME280;4991;43.566;27.820;2023-02-26T06:43:19;97969.50;;;13.45;100.00
9905;BME280;4991;43.566;27.820;2023-02-26T06:45:45;97968.59;;;13.41;100.00
9905;BME280;4991;43.566;27.820;2023-02-26T06:48:11;97954.22;;;13.44;100.00
9905;BME280;4991;43.566;27.820;2023-02-26T06:50:37;97953.75;;;13.42;100.00
9905;BME280;4991;43.566;27.820;2023-02-26T06:53:03;97937.81;;;13.44;100.00
9905;BME280;4991;43.566;27.820;2023-02-26T06:55:29;97902.72;;;13.34;100.00
9905;BME280;4991;43.566;27.820;2023-02-26T06:57:57;97919.34;;;13.53;100.00
9905;BME280;4991;43.566;27.820;2023-02-26T07:00:24;97961.28;;;13.57;100.00
9905;BME280;4991;43.566;27.820;2023-02-26T07:02:50;97939.75;;;13.56;100.00
9905;BME280;4991;43.566;27.820;2023-02-26T07:05:17;97956.72;;;13.61;100.00
9905;BME280;4991;43.566;27.820;2023-02-26T07:07:43;97959.56;;;13.65;100.00
9905;BME280;4991;43.566;27.820;2023-02-26T07:10:10;97966.88;;;13.61;100.00
9905;BME280;4991;43.566;27.820;2023-02-26T07:12:36;97973.13;;;13.61;100.00
9905;BME280;4991;43.566;27.820;2023-02-26T07:15:04;97950.47;;;13.61;100.00
9905;BME280;4991;43.566;27.820;2023-02-26T07:17:30;97966.53;;;13.74;100.00
9905;BME280;4991;43.566;27.820;2023-02-26T07:19:56;97974.03;;;13.77;100.00
9905;BME280;4991;43.566;27.820;2023-02-26T07:22:22;97976.66;;;13.74;100.00
9905;BME280;4991;43.566;27.820;2023-02-26T07:24:48;97965.72;;;13.74;100.00
9905;BME280;4991;43.566;27.820;2023-02-26T07:27:14;97978.59;;;13.85;100.00
9905;BME280;4991;43.566;27.820;2023-02-26T07:29:40;97977.22;;;13.79;100.00
9905;BME280;4991;43.566;27.820;2023-02-26T07:32:05;97973.56;;;13.87;100.00
9905;BME280;4991;43.566;27.820;2023-02-26T07:34:32;97963.72;;;13.98;100.00
9905;BME280;4991;43.566;27.820;2023-02-26T07:36:57;97959.88;;;13.87;100.00
9905;BME280;4991;43.566;27.820;2023-02-26T07:39:24;97970.78;;;13.99;100.00
9905;BME280;4991;43.566;27.820;2023-02-26T07:41:51;97965.66;;;13.98;100.00
9905;BME280;4991;43.566;27.820;2023-02-26T07:44:16;97977.06;;;14.00;100.00
9905;BME280;4991;43.566;27.820;2023-02-26T07:46:42;97975.59;;;14.02;100.00
9905;BME280;4991;43.566;27.820;2023-02-26T07:49:07;97968.97;;;14.03;100.00
9905;BME280;4991;43.566;27.820;2023-02-26T07:51:34;97982.66;;;14.03;100.00
9905;BME280;4991;43.566;27.820;2023-02-26T07:53:59;97953.00;;;13.93;100.00
9905;BME280;4991;43.566;27.820;2023-02-26T07:56:25;97973.22;;;13.89;100.00
9905;BME280;4991;43.566;27.820;2023-02-26T07:58:50;97960.34;;;13.89;100.00
9905;BME280;4991;43.566;27.820;2023-02-26T08:01:16;97981.19;;;13.94;100.00
9905;BME280;4991;43.566;27.820;2023-02-26T08:03:42;97970.25;;;13.94;100.00
9905;BME280;4991;43.566;27.820;2023-02-26T08:06:07;97958.59;;;13.97;100.00
9905;BME280;4991;43.566;27.820;2023-02-26T08:08:34;97962.69;;;14.03;100.00
9905;BME280;4991;43.566;27.820;2023-02-26T08:11:00;97954.69;;;14.10;100.00
9905;BME280;4991;43.566;27.820;2023-02-26T08:13:26;97968.25;;;14.06;100.00
9905;BME280;4991;43.566;27.820;2023-02-26T08:15:52;97957.38;;;14.22;100.00
9905;BME280;4991;43.566;27.820;2023-02-26T08:18:17;97957.97;;;14.28;100.00
9905;BME280;4991;43.566;27.820;2023-02-26T08:20:43;97969.47;;;14.33;100.00
9905;BME280;4991;43.566;27.820;2023-02-26T08:23:09;97955.41;;;14.35;100.00
9905;BME280;4991;43.566;27.820;2023-02-26T08:25:34;97938.09;;;14.31;100.00
9905;BME280;4991;43.566;27.820;2023-02-26T08:28:00;97942.19;;;14.37;100.00
9905;BME280;4991;43.566;27.820;2023-02-26T08:30:28;97943.50;;;14.43;100.00
9905;BME280;4991;43.566;27.820;2023-02-26T08:32:54;97939.41;;;14.49;100.00
9905;BME280;4991;43.566;27.820;2023-02-26T08:35:19;97947.31;;;14.66;100.00
9905;BME280;4991;43.566;27.820;2023-02-26T08:37:45;97941.72;;;14.62;100.00
9905;BME280;4991;43.566;27.820;2023-02-26T08:40:11;97948.09;;;14.66;100.00
9905;BME280;4991;43.566;27.820;2023-02-26T08:42:37;97946.16;;;14.67;100.00
9905;BME280;4991;43.566;27.820;2023-02-26T08:45:03;97947.03;;;14.71;100.00
9905;BME280;4991;43.566;27.820;2023-02-26T08:47:29;97939.09;;;14.81;100.00
9905;BME280;4991;43.566;27.820;2023-02-26T08:49:55;97941.03;;;14.81;100.00
9905;BME280;4991;43.566;27.820;2023-02-26T08:52:21;97944.94;;;14.80;100.00
9905;BME280;4991;43.566;27.820;2023-02-26T08:54:46;97960.06;;;14.74;100.00
9905;BME280;4991;43.566;27.820;2023-02-26T08:57:12;97947.94;;;14.75;100.00
9905;BME280;4991;43.566;27.820;2023-02-26T08:59:37;97943.59;;;14.74;100.00
9905;BME280;4991;43.566;27.820;2023-02-26T09:02:03;97919.81;;;14.78;100.00
9905;BME280;4991;43.566;27.820;2023-02-26T09:04:29;97976.50;;;14.89;100.00
9905;BME280;4991;43.566;27.820;2023-02-26T09:06:54;97958.41;;;15.00;100.00
9905;BME280;4991;43.566;27.820;2023-02-26T09:09:20;97940.53;;;15.06;100.00
9905;BME280;4991;43.566;27.820;2023-02-26T09:11:46;97926.13;;;15.25;100.00
9905;BME280;4991;43.566;27.820;2023-02-26T09:14:12;97957.53;;;15.43;100.00
9905;BME280;4991;43.566;27.820;2023-02-26T09:16:38;97962.66;;;15.60;100.00
9905;BME280;4991;43.566;27.820;2023-02-26T09:19:05;97938.59;;;15.54;100.00
9905;BME280;4991;43.566;27.820;2023-02-26T09:21:31;97936.53;;;15.66;100.00
9905;BME280;4991;43.566;27.820;2023-02-26T09:23:57;97959.22;;;15.63;100.00
9905;BME280;4991;43.566;27.820;2023-02-26T09:26:23;97927.69;;;15.57;100.00
9905;BME280;4991;43.566;27.820;2023-02-26T09:28:49;97939.59;;;15.80;100.00
9905;BME280;4991;43.566;27.820;2023-02-26T09:31:14;97943.47;;;15.95;100.00
9905;BME280;4991;43.566;27.820;2023-02-26T09:33:40;97946.69;;;16.00;100.00
9905;BME280;4991;43.566;27.820;2023-02-26T09:36:06;97938.97;;;16.06;100.00
9905;BME280;4991;43.566;27.820;2023-02-26T09:38:32;97941.59;;;16.18;100.00
9905;BME280;4991;43.566;27.820;2023-02-26T09:41:29;97923.22;;;16.41;100.00
9905;BME280;4991;43.566;27.820;2023-02-26T09:52:22;97931.00;;;16.54;100.00
9905;BME280;4991;43.566;27.820;2023-02-26T09:54:47;97957.16;;;16.48;100.00
9905;BME280;4991;43.566;27.820;2023-02-26T09:57:34;97948.78;;;16.41;100.00
9905;BME280;4991;43.566;27.820;2023-02-26T10:00:06;97926.94;;;16.48;100.00
9905;BME280;4991;43.566;27.820;2023-02-26T10:03:20;97921.81;;;16.28;100.00
9905;BME280;4991;43.566;27.820;2023-02-26T10:08:37;97925.19;;;16.40;100.00
9905;BME280;4991;43.566;27.820;2023-02-26T10:11:08;97933.16;;;16.45;100.00
9905;BME280;4991;43.566;27.820;2023-02-26T10:13:41;97942.34;;;16.53;100.00
9905;BME280;4991;43.566;27.820;2023-02-26T10:16:14;97938.66;;;16.45;100.00
9905;BME280;4991;43.566;27.820;2023-02-26T10:18:54;97941.47;;;16.49;100.00
9905;BME280;4991;43.566;27.820;2023-02-26T10:21:37;97956.66;;;16.62;100.00
9905;BME280;4991;43.566;27.820;2023-02-26T10:24:36;97912.25;;;16.41;100.00
9905;BME280;4991;43.566;27.820;2023-02-26T10:27:06;97937.63;;;16.72;100.00
9905;BME280;4991;43.566;27.820;2023-02-26T10:29:57;97931.59;;;16.86;100.00
9905;BME280;4991;43.566;27.820;2023-02-26T10:32:49;97953.09;;;16.81;100.00
9905;BME280;4991;43.566;27.820;2023-02-26T10:35:16;97947.31;;;16.66;100.00
9905;BME280;4991;43.566;27.820;2023-02-26T10:37:57;97981.19;;;16.70;100.00
9905;BME280;4991;43.566;27.820;2023-02-26T10:40:27;97950.25;;;16.54;100.00
9905;BME280;4991;43.566;27.820;2023-02-26T10:43:18;97937.47;;;16.65;100.00
9905;BME280;4991;43.566;27.820;2023-02-26T10:46:01;97956.94;;;16.57;100.00
9905;BME280;4991;43.566;27.820;2023-02-26T10:49:01;97951.38;;;16.53;100.00
9905;BME280;4991;43.566;27.820;2023-02-26T10:51:36;97946.75;;;16.57;100.00
9905;BME280;4991;43.566;27.820;2023-02-26T10:54:04;97944.94;;;16.65;100.00
9905;BME280;4991;43.566;27.820;2023-02-26T10:56:35;97955.22;;;16.68;100.00
9905;BME280;4991;43.566;27.820;2023-02-26T10:59:00;97952.72;;;16.44;100.00
9905;BME280;4991;43.566;27.820;2023-02-26T11:01:29;97938.28;;;16.47;100.00
9905;BME280;4991;43.566;27.820;2023-02-26T11:04:05;97949.19;;;16.43;100.00
9905;BME280;4991;43.566;27.820;2023-02-26T11:06:37;97946.03;;;16.41;100.00
9905;BME280;4991;43.566;27.820;2023-02-26T11:09:17;97953.22;;;16.46;100.00
9905;BME280;4991;43.566;27.820;2023-02-26T11:11:51;97936.78;;;16.49;100.00
9905;BME280;4991;43.566;27.820;2023-02-26T11:14:18;97952.47;;;16.49;100.00
9905;BME280;4991;43.566;27.820;2023-02-26T11:16:48;97948.81;;;16.45;100.00
9905;BME280;4991;43.566;27.820;2023-02-26T11:19:16;97947.78;;;16.49;100.00
9905;BME280;4991;43.566;27.820;2023-02-26T11:21:44;97959.03;;;16.44;100.00
9905;BME280;4991;43.566;27.820;2023-02-26T11:26:58;97947.59;;;16.42;100.00
9905;BME280;4991;43.566;27.820;2023-02-26T11:29:35;97937.06;;;16.44;100.00
9905;BME280;4991;43.566;27.820;2023-02-26T11:32:03;97924.91;;;16.45;100.00
9905;BME280;4991;43.566;27.820;2023-02-26T11:34:29;97937.41;;;16.43;100.00
9905;BME280;4991;43.566;27.820;2023-02-26T11:36:58;97928.19;;;16.51;100.00
9905;BME280;4991;43.566;27.820;2023-02-26T11:39:32;97950.53;;;16.49;100.00
9905;BME280;4991;43.566;27.820;2023-02-26T11:42:00;97962.81;;;16.55;100.00
9905;BME280;4991;43.566;27.820;2023-02-26T11:44:44;97936.56;;;16.58;100.00
9905;BME280;4991;43.566;27.820;2023-02-26T11:47:16;97953.63;;;16.67;100.00
9905;BME280;4991;43.566;27.820;2023-02-26T11:49:50;97963.66;;;16.78;100.00
9905;BME280;4991;43.566;27.820;2023-02-26T11:55:03;97973.25;;;16.88;100.00
9905;BME280;4991;43.566;27.820;2023-02-26T11:57:30;97975.16;;;16.84;100.00
9905;BME280;4991;43.566;27.820;2023-02-26T11:59:59;97969.97;;;16.79;100.00
9905;BME280;4991;43.566;27.820;2023-02-26T12:02:31;97965.47;;;16.71;100.00
9905;BME280;4991;43.566;27.820;2023-02-26T12:05:01;97963.88;;;16.70;100.00
9905;BME280;4991;43.566;27.820;2023-02-26T12:07:29;97931.41;;;16.56;100.00
9905;BME280;4991;43.566;27.820;2023-02-26T12:09:55;97951.97;;;16.62;100.00
9905;BME280;4991;43.566;27.820;2023-02-26T12:15:30;97960.84;;;16.75;100.00
9905;BME280;4991;43.566;27.820;2023-02-26T12:42:27;97961.41;;;17.07;100.00
9905;BME280;4991;43.566;27.820;2023-02-26T12:50:28;97978.56;;;17.19;100.00
9905;BME280;4991;43.566;27.820;2023-02-26T12:58:40;97970.53;;;17.11;100.00
9905;BME280;4991;43.566;27.820;2023-02-26T13:04:41;97981.34;;;17.00;100.00
9905;BME280;4991;43.566;27.820;2023-02-26T13:13:02;97992.78;;;17.02;100.00
9905;BME280;4991;43.566;27.820;2023-02-26T13:15:56;97990.69;;;16.96;100.00
9905;BME280;4991;43.566;27.820;2023-02-26T13:18:38;97983.19;;;16.93;100.00
9905;BME280;4991;43.566;27.820;2023-02-26T13:21:13;97981.09;;;16.86;100.00
9905;BME280;4991;43.566;27.820;2023-02-26T13:23:47;97978.28;;;16.83;100.00
9905;BME280;4991;43.566;27.820;2023-02-26T13:26:14;97993.91;;;16.78;100.00
9905;BME280;4991;43.566;27.820;2023-02-26T13:28:53;97967.00;;;16.68;100.00
9905;BME280;4991;43.566;27.820;2023-02-26T13:31:22;97982.84;;;16.56;100.00
9905;BME280;4991;43.566;27.820;2023-02-26T13:33:50;97958.84;;;16.53;100.00
9905;BME280;4991;43.566;27.820;2023-02-26T13:36:19;97958.34;;;16.47;100.00
9905;BME280;4991;43.566;27.820;2023-02-26T13:56:16;97969.94;;;16.22;100.00
9905;BME280;4991;43.566;27.820;2023-02-26T13:58:52;97956.44;;;16.13;100.00
9905;BME280;4991;43.566;27.820;2023-02-26T14:01:26;97962.78;;;16.17;100.00
9905;BME280;4991;43.566;27.820;2023-02-26T14:04:07;97974.31;;;16.07;100.00
9905;BME280;4991;43.566;27.820;2023-02-26T14:06:52;97981.25;;;16.01;100.00
9905;BME280;4991;43.566;27.820;2023-02-26T14:11:59;97968.63;;;15.97;100.00
9905;BME280;4991;43.566;27.820;2023-02-26T14:22:47;97975.63;;;15.79;100.00
9905;BME280;4991;43.566;27.820;2023-02-26T14:25:35;97983.09;;;15.78;100.00
9905;BME280;4991;43.566;27.820;2023-02-26T14:30:52;97972.88;;;15.79;100.00
9905;BME280;4991;43.566;27.820;2023-02-26T14:33:29;97983.28;;;15.70;100.00
9905;BME280;4991;43.566;27.820;2023-02-26T14:35:55;97963.53;;;15.64;100.00
9905;BME280;4991;43.566;27.820;2023-02-26T14:38:25;97962.31;;;15.62;100.00
9905;BME280;4991;43.566;27.820;2023-02-26T14:40:59;97983.63;;;15.68;100.00
9905;BME280;4991;43.566;27.820;2023-02-26T14:43:35;97985.03;;;15.62;100.00
9905;BME280;4991;43.566;27.820;2023-02-26T14:46:02;97982.16;;;15.55;100.00
9905;BME280;4991;43.566;27.820;2023-02-26T14:48:29;97968.25;;;15.48;100.00
9905;BME280;4991;43.566;27.820;2023-02-26T14:51:41;97979.84;;;15.41;100.00
9905;BME280;4991;43.566;27.820;2023-02-26T14:54:21;97963.28;;;15.38;100.00
9905;BME280;4991;43.566;27.820;2023-02-26T14:57:03;97973.13;;;15.39;100.00
9905;BME280;4991;43.566;27.820;2023-02-26T15:02:49;97976.44;;;15.32;100.00
9905;BME280;4991;43.566;27.820;2023-02-26T15:05:40;97971.69;;;15.29;100.00
9905;BME280;4991;43.566;27.820;2023-02-26T15:20:08;97962.84;;;15.20;100.00
9905;BME280;4991;43.566;27.820;2023-02-26T15:23:00;97987.09;;;15.18;100.00
9905;BME280;4991;43.566;27.820;2023-02-26T15:25:35;97972.66;;;15.21;100.00
9905;BME280;4991;43.566;27.820;2023-02-26T15:28:04;97966.38;;;15.21;100.00
9905;BME280;4991;43.566;27.820;2023-02-26T15:30:30;97975.03;;;15.23;100.00
9905;BME280;4991;43.566;27.820;2023-02-26T15:32:59;98008.66;;;15.20;100.00
9905;BME280;4991;43.566;27.820;2023-02-26T15:35:27;98014.88;;;15.17;100.00
9905;BME280;4991;43.566;27.820;2023-02-26T15:37:58;98052.66;;;15.23;100.00
9905;BME280;4991;43.566;27.820;2023-02-26T15:40:29;98024.66;;;15.18;100.00
9905;BME280;4991;43.566;27.820;2023-02-26T15:42:57;98053.00;;;15.22;100.00
9905;BME280;4991;43.566;27.820;2023-02-26T15:45:31;98036.97;;;15.24;100.00
9905;BME280;4991;43.566;27.820;2023-02-26T15:48:21;98043.16;;;15.21;100.00
9905;BME280;4991;43.566;27.820;2023-02-26T15:50:57;98004.31;;;15.19;100.00
9905;BME280;4991;43.566;27.820;2023-02-26T15:53:35;98037.56;;;15.17;100.00
9905;BME280;4991;43.566;27.820;2023-02-26T15:56:14;98051.03;;;15.22;100.00
9905;BME280;4991;43.566;27.820;2023-02-26T15:59:02;98040.88;;;15.23;100.00